createdAt,value
2022-11-17T00:01:45.022Z,81.33
2022-11-17T00:04:14.854Z,81.42
2022-11-17T00:06:43.838Z,81.38
2022-11-17T00:09:17.531Z,81.43
2022-11-17T00:11:59.799Z,81.57
2022-11-17T00:14:33.908Z,81.56
2022-11-17T00:17:03.481Z,81.47
2022-11-17T00:19:50.693Z,81.38
2022-11-17T00:22:19.192Z,81.14
2022-11-17T00:24:49.034Z,81.29
2022-11-17T00:27:17.816Z,81.08
2022-11-17T00:29:46.055Z,81.21
2022-11-17T00:32:32.476Z,81.30
2022-11-17T00:35:02.616Z,80.97
2022-11-17T00:37:34.333Z,80.87
2022-11-17T00:40:02.969Z,80.86
2022-11-17T00:42:31.215Z,80.68
2022-11-17T00:44:59.388Z,80.71
2022-11-17T00:47:27.933Z,80.77
2022-11-17T00:49:56.136Z,81.02
2022-11-17T00:52:25.998Z,80.98
2022-11-17T00:54:54.283Z,80.88
2022-11-17T00:57:22.469Z,81.13
2022-11-17T00:59:50.658Z,81.41
2022-11-17T01:02:18.904Z,81.28
2022-11-17T01:04:47.402Z,81.24
2022-11-17T01:07:15.654Z,81.18
2022-11-17T01:09:45.398Z,81.15
2022-11-17T01:12:13.979Z,81.46
2022-11-17T01:14:42.196Z,81.16
2022-11-17T01:17:10.726Z,81.22
2022-11-17T01:19:38.923Z,81.20
2022-11-17T01:22:07.099Z,81.24
2022-11-17T01:24:35.305Z,80.96
2022-11-17T01:27:05.177Z,80.82
2022-11-17T01:29:33.573Z,80.84
2022-11-17T01:32:01.759Z,80.72
2022-11-17T01:34:30.001Z,80.73
2022-11-17T01:37:15.590Z,80.66
2022-11-17T01:39:44.190Z,80.54
2022-11-17T01:42:16.724Z,80.31
2022-11-17T01:44:59.867Z,79.46
2022-11-17T01:47:44.359Z,79.53
2022-11-17T01:50:22.480Z,79.39
2022-11-17T01:52:52.593Z,79.44
2022-11-17T01:55:23.416Z,79.35
2022-11-17T01:57:57.905Z,79.55
2022-11-17T02:00:28.118Z,79.91
2022-11-17T02:02:57.809Z,79.97
2022-11-17T02:05:36.874Z,80.43
2022-11-17T02:08:07.969Z,81.68
2022-11-17T02:10:38.442Z,81.71
2022-11-17T02:13:09.137Z,82.10
2022-11-17T02:15:37.981Z,82.24
2022-11-17T02:18:06.940Z,82.51
2022-11-17T02:20:44.800Z,82.74
2022-11-17T02:23:36.684Z,82.85
2022-11-17T02:26:47.830Z,82.74
2022-11-17T02:29:23.549Z,83.28
2022-11-17T02:31:58.274Z,83.14
2022-11-17T02:34:32.622Z,83.54
2022-11-17T02:37:08.956Z,83.12
2022-11-17T02:39:42.560Z,83.02
2022-11-17T02:42:15.516Z,82.93
2022-11-17T02:44:49.977Z,82.29
2022-11-17T02:47:23.669Z,82.17
2022-11-17T02:49:57.579Z,82.20
2022-11-17T02:52:27.594Z,82.22
2022-11-17T02:55:00.922Z,81.89
2022-11-17T02:57:30.318Z,81.66
2022-11-17T03:00:02.726Z,82.00
2022-11-17T03:02:47.231Z,81.82
2022-11-17T03:05:20.956Z,81.92
2022-11-17T03:08:03.096Z,81.86
2022-11-17T03:10:46.267Z,81.83
2022-11-17T03:13:20.100Z,81.79
2022-11-17T03:15:55.714Z,81.53
2022-11-17T03:18:30.896Z,81.53
2022-11-17T03:21:11.649Z,81.72
2022-11-17T03:23:47.090Z,81.93
2022-11-17T03:26:18.310Z,81.96
2022-11-17T03:28:48.202Z,82.05
2022-11-17T03:31:21.971Z,81.87
2022-11-17T03:33:51.582Z,82.48
2022-11-17T03:36:25.558Z,82.87
2022-11-17T03:39:00.141Z,83.08
2022-11-17T03:41:35.012Z,82.55
2022-11-17T03:44:06.294Z,81.87
2022-11-17T03:46:39.691Z,81.32
2022-11-17T03:49:17.926Z,81.29
2022-11-17T03:51:46.709Z,81.23
2022-11-17T03:54:16.951Z,80.68
2022-11-17T03:56:55.562Z,80.40
2022-11-17T03:59:30.733Z,80.41
2022-11-17T04:02:00.472Z,80.72
2022-11-17T04:04:49.235Z,81.06
2022-11-17T04:07:17.448Z,81.61
2022-11-17T04:09:45.671Z,82.09
2022-11-17T04:12:32.179Z,82.11
2022-11-17T04:15:17.996Z,82.27
2022-11-17T04:17:48.283Z,82.48
2022-11-17T04:20:17.081Z,82.35
2022-11-17T04:22:46.236Z,82.59
2022-11-17T04:25:35.937Z,82.91
2022-11-17T04:28:22.708Z,82.72
2022-11-17T04:30:51.034Z,82.91
2022-11-17T04:33:20.587Z,83.13
2022-11-17T04:35:51.480Z,82.96
2022-11-17T04:38:20.292Z,82.99
2022-11-17T04:41:02.289Z,82.13
2022-11-17T04:43:30.556Z,81.97
2022-11-17T04:46:00.335Z,82.34
2022-11-17T04:48:30.480Z,82.04
2022-11-17T04:50:58.785Z,82.08
2022-11-17T04:53:26.920Z,82.24
2022-11-17T04:55:55.124Z,82.54
2022-11-17T04:58:23.295Z,82.66
2022-11-17T05:00:51.729Z,83.13
2022-11-17T05:03:21.609Z,83.72
2022-11-17T05:05:51.324Z,83.77
2022-11-17T05:08:19.530Z,83.53
2022-11-17T05:11:06.043Z,84.02
2022-11-17T05:13:34.585Z,83.62
2022-11-17T05:16:20.664Z,83.34
2022-11-17T05:18:48.862Z,83.43
2022-11-17T05:21:18.441Z,83.35
2022-11-17T05:23:55.012Z,83.22
2022-11-17T05:26:25.017Z,83.27
2022-11-17T05:28:53.976Z,83.17
2022-11-17T05:31:22.380Z,83.17
2022-11-17T05:33:50.554Z,83.08
2022-11-17T05:36:20.967Z,83.08
2022-11-17T05:38:50.611Z,82.74
2022-11-17T05:41:19.425Z,82.30
2022-11-17T05:43:47.856Z,82.33
2022-11-17T05:46:16.425Z,82.32
2022-11-17T05:48:45.228Z,82.63
2022-11-17T05:51:15.172Z,82.80
2022-11-17T05:53:45.104Z,83.05
2022-11-17T05:56:35.408Z,83.17
2022-11-17T05:59:13.301Z,82.98
2022-11-17T06:01:45.086Z,83.37
2022-11-17T06:04:17.229Z,83.19
2022-11-17T06:06:46.277Z,83.48
2022-11-17T06:09:17.050Z,83.90
2022-11-17T06:11:45.320Z,83.28
2022-11-17T06:14:15.153Z,83.39
2022-11-17T06:16:47.437Z,83.08
2022-11-17T06:19:20.660Z,82.78
2022-11-17T06:22:10.984Z,82.46
2022-11-17T06:24:40.637Z,82.43
2022-11-17T06:27:09.109Z,82.51
2022-11-17T06:29:43.656Z,82.38
2022-11-17T06:32:13.341Z,82.20
2022-11-17T06:34:41.806Z,81.97
2022-11-17T06:37:11.350Z,82.30
2022-11-17T06:39:41.245Z,82.36
2022-11-17T06:42:09.704Z,82.48
2022-11-17T06:44:37.939Z,82.51
2022-11-17T06:47:12.504Z,82.50
2022-11-17T06:49:41.009Z,82.50
2022-11-17T06:52:11.176Z,82.07
2022-11-17T06:54:40.880Z,81.98
2022-11-17T06:57:09.412Z,81.76
2022-11-17T06:59:40.758Z,81.98
2022-11-17T07:02:09.216Z,81.86
2022-11-17T07:04:37.974Z,81.92
2022-11-17T07:07:06.386Z,81.81
2022-11-17T07:09:34.610Z,81.71
2022-11-17T07:12:04.205Z,81.86
2022-11-17T07:14:33.553Z,81.98
2022-11-17T07:17:01.680Z,82.21
2022-11-17T07:19:29.886Z,82.04
2022-11-17T07:21:58.104Z,82.00
2022-11-17T07:24:26.358Z,82.05
2022-11-17T07:26:54.587Z,81.90
2022-11-17T07:29:24.118Z,81.72
2022-11-17T07:31:52.334Z,81.63
2022-11-17T07:34:20.557Z,81.50
2022-11-17T07:36:48.711Z,81.35
2022-11-17T07:39:21.423Z,81.17
2022-11-17T07:41:50.135Z,81.09
2022-11-17T07:44:18.277Z,81.13
2022-11-17T07:46:47.844Z,81.08
2022-11-17T07:49:16.416Z,81.37
2022-11-17T07:51:44.600Z,81.06
2022-11-17T07:54:13.172Z,80.99
2022-11-17T07:56:41.327Z,80.75
2022-11-17T07:59:11.308Z,80.61
2022-11-17T08:01:39.974Z,80.54
2022-11-17T08:04:11.742Z,80.51
2022-11-17T08:06:39.947Z,80.44
2022-11-17T08:09:10.818Z,80.38
2022-11-17T08:11:39.235Z,79.74
2022-11-17T08:14:08.033Z,78.07
2022-11-17T08:16:36.167Z,77.14
2022-11-17T08:19:06.301Z,76.85
2022-11-17T08:21:37.734Z,77.05
2022-11-17T08:24:07.155Z,77.39
2022-11-17T08:26:35.294Z,77.35
2022-11-17T08:29:03.498Z,77.41
2022-11-17T08:31:31.767Z,77.94
2022-11-17T08:34:00.283Z,77.82
2022-11-17T08:36:28.396Z,78.19
2022-11-17T08:38:58.274Z,78.54
2022-11-17T08:41:26.715Z,78.63
2022-11-17T08:43:55.260Z,78.88
2022-11-17T08:46:23.526Z,79.25
2022-11-17T08:48:56.811Z,79.29
2022-11-17T08:51:25.497Z,79.41
2022-11-17T08:53:55.096Z,79.39
2022-11-17T08:56:25.474Z,79.03
2022-11-17T08:58:53.745Z,79.13
2022-11-17T09:01:21.972Z,79.53
2022-11-17T09:03:50.615Z,79.41
2022-11-17T09:06:20.141Z,79.56
2022-11-17T09:08:48.802Z,79.82
2022-11-17T09:11:17.244Z,79.38
2022-11-17T09:13:47.254Z,79.40
2022-11-17T09:16:17.080Z,79.43
2022-11-17T09:18:46.174Z,79.33
2022-11-17T09:21:17.163Z,74.03
2022-11-17T09:23:46.429Z,72.17
2022-11-17T09:26:16.238Z,71.29
2022-11-17T09:28:46.862Z,72.04
2022-11-17T09:31:18.878Z,73.76
2022-11-17T09:33:47.919Z,74.70
2022-11-17T09:36:17.250Z,75.68
2022-11-17T09:38:47.073Z,76.23
2022-11-17T09:41:27.696Z,77.05
2022-11-17T09:44:04.134Z,77.27
2022-11-17T09:46:45.790Z,77.66
2022-11-17T09:49:29.298Z,78.29
2022-11-17T09:52:01.689Z,78.60
2022-11-17T09:54:34.179Z,76.31
2022-11-17T09:57:03.129Z,74.21
2022-11-17T09:59:34.064Z,70.74
2022-11-17T10:02:02.422Z,67.19
2022-11-17T10:04:31.209Z,66.47
2022-11-17T10:07:00.054Z,64.50
2022-11-17T10:09:37.809Z,63.80
2022-11-17T10:12:16.535Z,62.42
2022-11-17T10:14:48.593Z,60.49
2022-11-17T10:17:17.151Z,60.68
2022-11-17T10:19:46.354Z,60.38
2022-11-17T10:22:21.567Z,59.05
2022-11-17T10:24:52.270Z,60.80
2022-11-17T10:27:24.088Z,61.88
2022-11-17T10:30:04.613Z,64.53
2022-11-17T10:32:36.244Z,65.44
2022-11-17T10:35:25.743Z,63.99
2022-11-17T10:37:58.718Z,62.75
2022-11-17T10:40:28.289Z,61.56
2022-11-17T10:43:04.064Z,61.49
2022-11-17T10:45:34.620Z,62.82
2022-11-17T10:48:21.581Z,63.42
2022-11-17T10:50:56.808Z,64.84
2022-11-17T10:53:38.257Z,66.06
2022-11-17T10:56:15.831Z,67.26
2022-11-17T10:59:13.814Z,67.72
2022-11-17T11:01:45.227Z,68.44
2022-11-17T11:04:30.613Z,69.23
2022-11-17T11:07:10.370Z,70.35
2022-11-17T11:09:44.016Z,71.15
2022-11-17T11:12:16.169Z,72.11
2022-11-17T11:14:50.055Z,73.15
2022-11-17T11:17:20.764Z,73.37
2022-11-17T11:19:54.176Z,74.04
2022-11-17T11:22:32.841Z,74.41
2022-11-17T11:25:11.987Z,74.55
2022-11-17T11:27:57.408Z,75.03
2022-11-17T11:30:26.255Z,74.86
2022-11-17T11:33:13.717Z,75.04
2022-11-17T11:36:02.175Z,75.45
2022-11-17T11:38:51.275Z,75.58
2022-11-17T11:41:35.699Z,75.81
2022-11-17T11:44:22.206Z,76.08
2022-11-17T11:46:57.057Z,76.23
2022-11-17T11:49:35.442Z,75.93
2022-11-17T11:52:07.309Z,75.87
2022-11-17T11:54:46.310Z,75.84
2022-11-17T11:57:25.570Z,75.83
2022-11-17T12:00:03.556Z,75.94
2022-11-17T12:02:48.898Z,75.94
2022-11-17T12:05:27.699Z,75.79
2022-11-17T12:08:10.370Z,75.59
2022-11-17T12:10:44.171Z,75.58
2022-11-17T12:13:15.777Z,75.67
2022-11-17T12:15:44.308Z,75.16
2022-11-17T12:18:15.656Z,75.15
2022-11-17T12:21:07.160Z,74.95
2022-11-17T12:23:49.320Z,75.27
2022-11-17T12:26:26.631Z,75.13
2022-11-17T12:29:28.081Z,75.29
2022-11-17T12:31:58.052Z,75.45
2022-11-17T12:34:29.122Z,75.55
2022-11-17T12:37:32.780Z,74.92
2022-11-17T12:40:06.428Z,74.49
2022-11-17T12:42:36.032Z,74.15
2022-11-17T12:45:13.299Z,74.01
2022-11-17T12:47:48.109Z,74.09
2022-11-17T12:50:51.193Z,73.82
2022-11-17T12:53:38.260Z,73.54
2022-11-17T12:56:29.158Z,74.13
2022-11-17T12:59:09.072Z,74.00
2022-11-17T13:01:45.284Z,74.23
2022-11-17T13:04:17.780Z,74.42
2022-11-17T13:07:02.881Z,74.33
2022-11-17T13:09:35.357Z,74.06
2022-11-17T13:12:04.361Z,74.44
2022-11-17T13:14:33.928Z,74.45
2022-11-17T13:17:03.561Z,74.66
2022-11-17T13:19:37.879Z,74.72
2022-11-17T13:22:07.810Z,74.94
2022-11-17T13:24:40.656Z,74.75
2022-11-17T13:27:21.633Z,74.46
2022-11-17T13:29:50.316Z,74.85
2022-11-17T13:32:21.483Z,74.40
2022-11-17T13:34:52.714Z,74.42
2022-11-17T13:37:22.902Z,74.67
2022-11-17T13:40:22.149Z,74.79
2022-11-17T13:42:51.445Z,74.99
2022-11-17T13:45:19.688Z,74.99
2022-11-17T13:47:49.306Z,75.27
2022-11-17T13:50:39.606Z,74.87
2022-11-17T13:53:24.619Z,73.71
2022-11-17T13:55:54.727Z,73.05
2022-11-17T13:58:29.832Z,73.30
2022-11-17T14:01:00.203Z,71.84
2022-11-17T14:03:37.862Z,71.62
2022-11-17T14:06:08.526Z,71.31
2022-11-17T14:08:39.344Z,70.93
2022-11-17T14:11:22.836Z,71.04
2022-11-17T14:13:54.108Z,71.43
2022-11-17T14:16:28.404Z,71.71
2022-11-17T14:19:02.296Z,71.93
2022-11-17T14:21:31.453Z,71.91
2022-11-17T14:24:08.487Z,71.90
2022-11-17T14:26:44.561Z,72.59
2022-11-17T14:29:13.720Z,73.28
2022-11-17T14:31:42.280Z,73.74
2022-11-17T14:34:10.580Z,73.76
2022-11-17T14:36:40.508Z,72.54
2022-11-17T14:39:15.675Z,72.07
2022-11-17T14:41:47.093Z,72.53
2022-11-17T14:44:15.356Z,71.48
2022-11-17T14:46:44.234Z,69.15
2022-11-17T14:49:13.128Z,67.87
2022-11-17T14:51:41.982Z,67.71
2022-11-17T14:54:10.322Z,68.10
2022-11-17T14:56:38.661Z,68.07
2022-11-17T14:59:12.291Z,68.26
2022-11-17T15:01:42.775Z,68.98
2022-11-17T15:04:48.361Z,69.50
2022-11-17T15:07:04.270Z,70.14
2022-11-17T15:09:32.846Z,70.58
2022-11-17T15:12:01.277Z,70.51
2022-11-17T15:14:31.237Z,71.12
2022-11-17T15:16:59.562Z,71.05
2022-11-17T15:19:27.715Z,70.93
2022-11-17T15:21:56.019Z,71.29
2022-11-17T15:24:24.619Z,71.06
2022-11-17T15:26:52.845Z,71.15
2022-11-17T15:29:21.432Z,70.44
2022-11-17T15:31:51.107Z,70.29
2022-11-17T15:34:20.624Z,70.18
2022-11-17T15:36:49.100Z,70.25
2022-11-17T15:39:18.474Z,70.38
2022-11-17T15:41:47.130Z,70.19
2022-11-17T15:44:15.834Z,70.36
2022-11-17T15:46:47.345Z,70.94
2022-11-17T15:49:18.236Z,71.54
2022-11-17T15:51:46.737Z,71.75
2022-11-17T15:54:20.329Z,72.43
2022-11-17T15:56:49.571Z,72.82
2022-11-17T15:59:18.080Z,73.07
2022-11-17T16:01:46.984Z,72.62
2022-11-17T16:04:17.532Z,72.34
2022-11-17T16:06:47.197Z,72.87
2022-11-17T16:09:17.463Z,72.99
2022-11-17T16:11:46.237Z,73.30
2022-11-17T16:14:16.005Z,73.00
2022-11-17T16:16:46.851Z,73.31
2022-11-17T16:19:15.658Z,73.13
2022-11-17T16:21:46.099Z,73.52
2022-11-17T16:24:16.137Z,73.45
2022-11-17T16:26:45.659Z,73.56
2022-11-17T16:29:14.232Z,73.23
2022-11-17T16:31:44.457Z,73.36
2022-11-17T16:34:16.529Z,73.26
2022-11-17T16:36:46.836Z,73.42
2022-11-17T16:39:18.090Z,73.59
2022-11-17T16:41:47.522Z,73.76
2022-11-17T16:44:19.482Z,73.89
2022-11-17T16:46:49.895Z,73.98
2022-11-17T16:49:20.100Z,74.01
2022-11-17T16:51:52.641Z,74.03
2022-11-17T16:54:22.493Z,74.42
2022-11-17T16:56:50.932Z,74.08
2022-11-17T16:59:19.695Z,73.77
2022-11-17T17:01:48.056Z,73.24
2022-11-17T17:04:17.333Z,72.90
2022-11-17T17:06:46.037Z,73.20
2022-11-17T17:09:17.963Z,73.03
2022-11-17T17:11:48.030Z,73.02
2022-11-17T17:14:17.217Z,73.39
2022-11-17T17:16:45.721Z,74.56
2022-11-17T17:19:16.054Z,74.70
2022-11-17T17:21:45.708Z,75.09
2022-11-17T17:24:15.665Z,75.01
2022-11-17T17:26:44.275Z,75.22
2022-11-17T17:29:13.903Z,75.15
2022-11-17T17:31:43.586Z,75.41
2022-11-17T17:34:14.090Z,75.41
2022-11-17T17:36:42.349Z,75.39
2022-11-17T17:39:16.913Z,74.43
2022-11-17T17:41:46.228Z,73.58
2022-11-17T17:44:16.722Z,73.36
2022-11-17T17:46:45.179Z,72.86
2022-11-17T17:49:14.312Z,73.17
2022-11-17T17:51:44.527Z,73.18
2022-11-17T17:54:18.620Z,73.20
2022-11-17T17:56:47.544Z,72.91
2022-11-17T17:59:17.252Z,73.45
2022-11-17T18:01:47.852Z,73.04
2022-11-17T18:04:18.070Z,72.59
2022-11-17T18:06:48.135Z,72.67
2022-11-17T18:09:20.757Z,72.81
2022-11-17T18:11:51.143Z,72.72
2022-11-17T18:14:24.541Z,72.60
2022-11-17T18:16:53.639Z,73.00
2022-11-17T18:19:26.946Z,73.03
2022-11-17T18:21:58.166Z,74.30
2022-11-17T18:24:28.438Z,73.73
2022-11-17T18:26:56.941Z,74.12
2022-11-17T18:29:25.319Z,74.69
2022-11-17T18:31:53.514Z,74.64
2022-11-17T18:34:23.373Z,75.02
2022-11-17T18:36:55.667Z,75.11
2022-11-17T18:39:24.660Z,75.07
2022-11-17T18:41:56.358Z,75.55
2022-11-17T18:44:25.843Z,75.92
2022-11-17T18:46:58.246Z,76.26
2022-11-17T18:49:29.619Z,76.41
2022-11-17T18:51:57.906Z,76.54
2022-11-17T18:54:26.177Z,76.68
2022-11-17T18:56:56.342Z,76.35
2022-11-17T18:59:24.599Z,76.76
2022-11-17T19:01:52.899Z,76.60
2022-11-17T19:04:22.307Z,76.67
2022-11-17T19:06:51.056Z,76.65
2022-11-17T19:09:20.882Z,76.52
2022-11-17T19:11:49.764Z,76.20
2022-11-17T19:14:19.935Z,76.65
2022-11-17T19:16:50.450Z,76.50
2022-11-17T19:19:19.533Z,76.35
2022-11-17T19:21:48.110Z,76.14
2022-11-17T19:24:17.191Z,76.24
2022-11-17T19:26:46.069Z,76.07
2022-11-17T19:29:17.487Z,76.29
2022-11-17T19:31:49.709Z,75.30
2022-11-17T19:34:18.283Z,74.86
2022-11-17T19:36:46.607Z,74.65
2022-11-17T19:39:15.618Z,74.75
2022-11-17T19:41:45.096Z,74.85
2022-11-17T19:44:13.800Z,75.54
2022-11-17T19:46:43.351Z,75.86
2022-11-17T19:49:14.138Z,75.89
2022-11-17T19:51:43.016Z,75.79
2022-11-17T19:54:13.409Z,75.65
2022-11-17T19:56:42.255Z,75.76
2022-11-17T19:59:15.609Z,75.63
2022-11-17T20:01:45.350Z,75.58
2022-11-17T20:04:16.367Z,75.36
2022-11-17T20:06:44.641Z,75.30
2022-11-17T20:09:15.231Z,75.17
2022-11-17T20:11:44.577Z,75.36
2022-11-17T20:14:14.489Z,74.93
2022-11-17T20:16:42.735Z,75.35
2022-11-17T20:19:12.201Z,75.59
2022-11-17T20:21:41.737Z,75.23
2022-11-17T20:24:10.302Z,75.76
2022-11-17T20:26:40.917Z,75.78
2022-11-17T20:29:09.295Z,75.67
2022-11-17T20:31:38.107Z,75.87
2022-11-17T20:34:06.859Z,75.68
2022-11-17T20:36:35.999Z,75.92
2022-11-17T20:39:07.567Z,75.78
2022-11-17T20:41:35.998Z,76.01
2022-11-17T20:44:04.949Z,76.07
2022-11-17T20:46:33.201Z,76.07
2022-11-17T20:49:01.244Z,75.89
2022-11-17T20:51:29.338Z,75.85
2022-11-17T20:53:57.549Z,75.86
2022-11-17T20:56:27.500Z,75.63
2022-11-17T20:58:56.067Z,75.58
2022-11-17T21:01:24.476Z,74.97
2022-11-17T21:03:53.194Z,74.58
2022-11-17T21:06:23.448Z,74.50
2022-11-17T21:08:51.759Z,74.51
2022-11-17T21:11:35.519Z,74.51
2022-11-17T21:14:06.153Z,74.55
2022-11-17T21:16:35.024Z,74.74
2022-11-17T21:19:04.215Z,74.69
2022-11-17T21:21:32.450Z,74.81
2022-11-17T21:24:00.772Z,75.35
2022-11-17T21:26:29.649Z,75.28
2022-11-17T21:29:03.205Z,75.35
2022-11-17T21:31:36.319Z,75.48
2022-11-17T21:34:07.233Z,75.96
2022-11-17T21:36:36.912Z,75.91
2022-11-17T21:39:05.824Z,76.19
2022-11-17T21:41:36.285Z,76.42
2022-11-17T21:44:07.079Z,76.72
2022-11-17T21:46:37.215Z,76.71
2022-11-17T21:49:05.552Z,76.73
2022-11-17T21:51:38.841Z,76.65
2022-11-17T21:54:09.846Z,76.76
2022-11-17T21:56:38.572Z,76.44
2022-11-17T21:59:10.696Z,76.50
2022-11-17T22:01:40.967Z,76.38
2022-11-17T22:04:09.294Z,76.27
2022-11-17T22:06:39.578Z,76.36
2022-11-17T22:09:08.163Z,76.41
2022-11-17T22:11:37.306Z,75.67
2022-11-17T22:14:08.999Z,74.82
2022-11-17T22:16:39.658Z,73.86
2022-11-17T22:19:09.143Z,74.28
2022-11-17T22:21:38.306Z,74.34
2022-11-17T22:24:08.272Z,74.43
2022-11-17T22:26:38.378Z,74.88
2022-11-17T22:29:08.245Z,75.37
2022-11-17T22:31:36.734Z,75.47
2022-11-17T22:34:06.614Z,75.77
2022-11-17T22:36:35.390Z,75.85
2022-11-17T22:39:04.060Z,75.75
2022-11-17T22:41:32.516Z,75.66
2022-11-17T22:44:00.724Z,75.26
2022-11-17T22:46:29.939Z,74.95
2022-11-17T22:48:58.271Z,75.00
2022-11-17T22:51:45.700Z,75.11
2022-11-17T22:54:14.193Z,75.15
2022-11-17T22:56:42.399Z,75.59
2022-11-17T22:59:11.215Z,75.47
2022-11-17T23:01:39.959Z,76.04
2022-11-17T23:04:08.848Z,75.83
2022-11-17T23:06:38.731Z,76.07
2022-11-17T23:09:07.118Z,75.96
2022-11-17T23:11:37.994Z,76.00
2022-11-17T23:14:07.944Z,75.47
2022-11-17T23:16:36.827Z,75.46
2022-11-17T23:19:07.296Z,75.22
2022-11-17T23:21:35.885Z,75.41
2022-11-17T23:24:05.910Z,75.26
2022-11-17T23:26:35.891Z,75.80
2022-11-17T23:29:04.097Z,75.60
2022-11-17T23:31:32.286Z,75.82
2022-11-17T23:34:00.590Z,75.80
2022-11-17T23:36:28.886Z,75.98
2022-11-17T23:38:57.662Z,76.22
2022-11-17T23:41:27.425Z,76.09
2022-11-17T23:43:56.211Z,75.83
2022-11-17T23:46:26.412Z,75.54
2022-11-17T23:48:56.321Z,76.19
2022-11-17T23:51:25.939Z,76.89
2022-11-17T23:53:54.947Z,76.74
2022-11-17T23:56:23.718Z,77.04
2022-11-17T23:58:54.018Z,77.30
